Terminal Aerodrome Forecast
Issued by NWS North Platte, NE

Home | Current Version | Previous Version | Text Only | Print | Product List | Glossary Off
Versions: 1 2 3 4 5 6 7 8 9 10 11 12 13 14 15 16 17 18

000
FTUS43 KLBF 232100 AAA
TAFVTN
TAF AMD
KVTN 232131Z 2322/2418 33020G30KT P6SM BKN015 OVC025
     FM240100 33015G25KT P6SM OVC025
     FM240600 31012KT P6SM BKN025 OVC050=

USA.gov is the U.S. government's official web portal to all federal, state and local government web resources and services.